sensor_id;sensor_type;location;lat;lon;timestamp;P1;durP1;ratioP1;P2;durP2;ratioP2
64457;SDS011;58438;51.200;7.252;2022-12-18T00:01:24;5.60;;;3.72;;
64457;SDS011;58438;51.200;7.252;2022-12-18T00:04:14;7.72;;;3.75;;
64457;SDS011;58438;51.200;7.252;2022-12-18T00:07:04;4.50;;;3.50;;
64457;SDS011;58438;51.200;7.252;2022-12-18T00:09:52;8.13;;;4.13;;
64457;SDS011;58438;51.200;7.252;2022-12-18T00:12:39;4.10;;;3.70;;
64457;SDS011;58438;51.200;7.252;2022-12-18T00:15:26;3.55;;;3.25;;
64457;SDS011;58438;51.200;7.252;2022-12-18T00:18:13;3.88;;;3.60;;
64457;SDS011;58438;51.200;7.252;2022-12-18T00:21:05;5.20;;;3.72;;
64457;SDS011;58438;51.200;7.252;2022-12-18T00:23:53;6.43;;;4.35;;
64457;SDS011;58438;51.200;7.252;2022-12-18T00:26:41;4.13;;;3.65;;
64457;SDS011;58438;51.200;7.252;2022-12-18T00:29:28;5.97;;;3.70;;
64457;SDS011;58438;51.200;7.252;2022-12-18T00:32:15;3.03;;;2.78;;
64457;SDS011;58438;51.200;7.252;2022-12-18T00:35:03;5.18;;;4.63;;
64457;SDS011;58438;51.200;7.252;2022-12-18T00:37:50;5.35;;;4.80;;
64457;SDS011;58438;51.200;7.252;2022-12-18T00:40:37;4.50;;;3.92;;
64457;SDS011;58438;51.200;7.252;2022-12-18T00:43:26;5.53;;;4.97;;
64457;SDS011;58438;51.200;7.252;2022-12-18T00:46:12;7.15;;;5.03;;
64457;SDS011;58438;51.200;7.252;2022-12-18T00:48:59;4.80;;;3.58;;
64457;SDS011;58438;51.200;7.252;2022-12-18T00:51:46;6.28;;;4.07;;
64457;SDS011;58438;51.200;7.252;2022-12-18T00:54:33;6.95;;;4.78;;
64457;SDS011;58438;51.200;7.252;2022-12-18T00:57:20;8.10;;;4.75;;
64457;SDS011;58438;51.200;7.252;2022-12-18T01:00:09;6.05;;;4.30;;
64457;SDS011;58438;51.200;7.252;2022-12-18T01:02:57;6.22;;;4.88;;
64457;SDS011;58438;51.200;7.252;2022-12-18T01:05:44;3.97;;;3.50;;
64457;SDS011;58438;51.200;7.252;2022-12-18T01:08:31;8.45;;;4.18;;
64457;SDS011;58438;51.200;7.252;2022-12-18T01:11:19;6.35;;;4.13;;
64457;SDS011;58438;51.200;7.252;2022-12-18T01:14:06;9.27;;;5.15;;
64457;SDS011;58438;51.200;7.252;2022-12-18T01:16:55;9.57;;;4.68;;
64457;SDS011;58438;51.200;7.252;2022-12-18T01:19:45;4.72;;;3.72;;
64457;SDS011;58438;51.200;7.252;2022-12-18T01:22:34;5.50;;;3.60;;
64457;SDS011;58438;51.200;7.252;2022-12-18T01:25:22;7.00;;;4.55;;
64457;SDS011;58438;51.200;7.252;2022-12-18T01:28:12;6.68;;;4.75;;
64457;SDS011;58438;51.200;7.252;2022-12-18T01:31:12;3.92;;;3.40;;
64457;SDS011;58438;51.200;7.252;2022-12-18T01:34:04;6.90;;;4.18;;
64457;SDS011;58438;51.200;7.252;2022-12-18T01:36:53;4.75;;;4.25;;
64457;SDS011;58438;51.200;7.252;2022-12-18T01:39:42;5.85;;;3.60;;
64457;SDS011;58438;51.200;7.252;2022-12-18T01:42:31;5.63;;;4.25;;
64457;SDS011;58438;51.200;7.252;2022-12-18T01:45:23;3.60;;;3.30;;
64457;SDS011;58438;51.200;7.252;2022-12-18T01:48:13;7.75;;;5.43;;
64457;SDS011;58438;51.200;7.252;2022-12-18T01:51:03;8.75;;;4.93;;
64457;SDS011;58438;51.200;7.252;2022-12-18T01:53:53;5.75;;;4.55;;
64457;SDS011;58438;51.200;7.252;2022-12-18T01:56:42;7.07;;;4.28;;
64457;SDS011;58438;51.200;7.252;2022-12-18T01:59:30;5.57;;;4.22;;
64457;SDS011;58438;51.200;7.252;2022-12-18T02:02:20;5.18;;;4.38;;
64457;SDS011;58438;51.200;7.252;2022-12-18T02:05:10;6.05;;;4.30;;
64457;SDS011;58438;51.200;7.252;2022-12-18T02:08:02;5.28;;;4.05;;
64457;SDS011;58438;51.200;7.252;2022-12-18T02:10:56;5.05;;;3.88;;
64457;SDS011;58438;51.200;7.252;2022-12-18T02:13:50;7.47;;;4.78;;
64457;SDS011;58438;51.200;7.252;2022-12-18T02:16:42;7.05;;;4.78;;
64457;SDS011;58438;51.200;7.252;2022-12-18T02:19:39;4.75;;;3.63;;
64457;SDS011;58438;51.200;7.252;2022-12-18T02:22:29;10.18;;;3.83;;
64457;SDS011;58438;51.200;7.252;2022-12-18T02:25:26;5.43;;;4.43;;
64457;SDS011;58438;51.200;7.252;2022-12-18T02:28:18;5.05;;;4.40;;
64457;SDS011;58438;51.200;7.252;2022-12-18T02:31:06;10.70;;;4.20;;
64457;SDS011;58438;51.200;7.252;2022-12-18T02:33:55;6.07;;;4.38;;
64457;SDS011;58438;51.200;7.252;2022-12-18T02:36:43;7.68;;;5.20;;
64457;SDS011;58438;51.200;7.252;2022-12-18T02:39:33;4.63;;;2.92;;
64457;SDS011;58438;51.200;7.252;2022-12-18T02:42:20;5.82;;;3.97;;
64457;SDS011;58438;51.200;7.252;2022-12-18T02:45:10;3.78;;;3.45;;
64457;SDS011;58438;51.200;7.252;2022-12-18T02:47:57;6.10;;;4.75;;
64457;SDS011;58438;51.200;7.252;2022-12-18T02:50:45;4.78;;;2.95;;
64457;SDS011;58438;51.200;7.252;2022-12-18T02:53:36;6.82;;;4.18;;
64457;SDS011;58438;51.200;7.252;2022-12-18T02:56:27;6.57;;;3.90;;
64457;SDS011;58438;51.200;7.252;2022-12-18T02:59:15;3.92;;;3.15;;
64457;SDS011;58438;51.200;7.252;2022-12-18T03:02:07;5.72;;;3.15;;
64457;SDS011;58438;51.200;7.252;2022-12-18T03:05:00;6.10;;;3.75;;
64457;SDS011;58438;51.200;7.252;2022-12-18T03:07:49;6.85;;;3.80;;
64457;SDS011;58438;51.200;7.252;2022-12-18T03:10:38;5.05;;;3.75;;
64457;SDS011;58438;51.200;7.252;2022-12-18T03:13:31;5.88;;;4.28;;
64457;SDS011;58438;51.200;7.252;2022-12-18T03:16:20;5.50;;;4.78;;
64457;SDS011;58438;51.200;7.252;2022-12-18T03:19:11;5.18;;;4.05;;
64457;SDS011;58438;51.200;7.252;2022-12-18T03:22:01;5.65;;;3.58;;
64457;SDS011;58438;51.200;7.252;2022-12-18T03:24:49;5.30;;;4.10;;
64457;SDS011;58438;51.200;7.252;2022-12-18T03:27:36;6.28;;;3.65;;
64457;SDS011;58438;51.200;7.252;2022-12-18T03:30:24;8.52;;;3.53;;
64457;SDS011;58438;51.200;7.252;2022-12-18T03:33:14;6.68;;;4.10;;
64457;SDS011;58438;51.200;7.252;2022-12-18T03:36:06;6.57;;;3.83;;
64457;SDS011;58438;51.200;7.252;2022-12-18T03:38:53;4.63;;;3.80;;
64457;SDS011;58438;51.200;7.252;2022-12-18T03:41:41;4.25;;;3.42;;
64457;SDS011;58438;51.200;7.252;2022-12-18T03:44:32;6.22;;;3.90;;
64457;SDS011;58438;51.200;7.252;2022-12-18T03:47:23;5.32;;;3.65;;
64457;SDS011;58438;51.200;7.252;2022-12-18T03:50:13;6.15;;;3.45;;
64457;SDS011;58438;51.200;7.252;2022-12-18T03:53:04;6.40;;;3.55;;
64457;SDS011;58438;51.200;7.252;2022-12-18T03:55:53;4.13;;;3.30;;
64457;SDS011;58438;51.200;7.252;2022-12-18T03:58:40;9.02;;;4.45;;
64457;SDS011;58438;51.200;7.252;2022-12-18T04:01:30;7.78;;;5.10;;
64457;SDS011;58438;51.200;7.252;2022-12-18T04:04:18;5.47;;;3.95;;
64457;SDS011;58438;51.200;7.252;2022-12-18T04:07:05;5.40;;;3.15;;
64457;SDS011;58438;51.200;7.252;2022-12-18T04:09:55;3.30;;;3.00;;
64457;SDS011;58438;51.200;7.252;2022-12-18T04:12:43;3.88;;;3.10;;
64457;SDS011;58438;51.200;7.252;2022-12-18T04:15:30;5.80;;;4.05;;
64457;SDS011;58438;51.200;7.252;2022-12-18T04:18:18;3.75;;;2.90;;
64457;SDS011;58438;51.200;7.252;2022-12-18T04:21:05;2.80;;;2.40;;
64457;SDS011;58438;51.200;7.252;2022-12-18T04:23:52;4.60;;;2.97;;
64457;SDS011;58438;51.200;7.252;2022-12-18T04:26:41;3.63;;;2.90;;
64457;SDS011;58438;51.200;7.252;2022-12-18T04:29:28;7.65;;;4.05;;
64457;SDS011;58438;51.200;7.252;2022-12-18T04:32:15;4.97;;;3.88;;
64457;SDS011;58438;51.200;7.252;2022-12-18T04:35:02;4.88;;;3.35;;
64457;SDS011;58438;51.200;7.252;2022-12-18T04:37:52;3.40;;;2.70;;
64457;SDS011;58438;51.200;7.252;2022-12-18T04:40:39;4.45;;;4.05;;
64457;SDS011;58438;51.200;7.252;2022-12-18T04:43:28;4.60;;;3.20;;
64457;SDS011;58438;51.200;7.252;2022-12-18T04:46:15;3.45;;;3.03;;
64457;SDS011;58438;51.200;7.252;2022-12-18T04:49:02;5.35;;;3.10;;
64457;SDS011;58438;51.200;7.252;2022-12-18T04:51:49;6.75;;;4.32;;
64457;SDS011;58438;51.200;7.252;2022-12-18T04:54:36;5.97;;;3.55;;
64457;SDS011;58438;51.200;7.252;2022-12-18T04:57:22;5.32;;;3.30;;
64457;SDS011;58438;51.200;7.252;2022-12-18T05:00:11;4.10;;;3.35;;
64457;SDS011;58438;51.200;7.252;2022-12-18T05:03:00;4.30;;;3.67;;
64457;SDS011;58438;51.200;7.252;2022-12-18T05:05:48;6.93;;;3.75;;
64457;SDS011;58438;51.200;7.252;2022-12-18T05:08:36;6.03;;;3.70;;
64457;SDS011;58438;51.200;7.252;2022-12-18T05:11:23;3.47;;;3.17;;
64457;SDS011;58438;51.200;7.252;2022-12-18T05:14:10;4.90;;;3.35;;
64457;SDS011;58438;51.200;7.252;2022-12-18T05:16:58;4.80;;;3.90;;
64457;SDS011;58438;51.200;7.252;2022-12-18T05:19:46;7.88;;;4.10;;
64457;SDS011;58438;51.200;7.252;2022-12-18T05:22:33;4.47;;;3.70;;
64457;SDS011;58438;51.200;7.252;2022-12-18T05:25:20;6.22;;;4.28;;
64457;SDS011;58438;51.200;7.252;2022-12-18T05:28:07;6.57;;;4.07;;
64457;SDS011;58438;51.200;7.252;2022-12-18T05:30:55;9.68;;;4.18;;
64457;SDS011;58438;51.200;7.252;2022-12-18T05:33:43;6.63;;;3.58;;
64457;SDS011;58438;51.200;7.252;2022-12-18T05:36:31;4.80;;;3.85;;
64457;SDS011;58438;51.200;7.252;2022-12-18T05:39:18;5.45;;;3.83;;
64457;SDS011;58438;51.200;7.252;2022-12-18T05:42:05;3.95;;;3.55;;
64457;SDS011;58438;51.200;7.252;2022-12-18T05:44:52;4.50;;;3.38;;
64457;SDS011;58438;51.200;7.252;2022-12-18T05:47:39;6.30;;;3.92;;
64457;SDS011;58438;51.200;7.252;2022-12-18T05:50:28;9.88;;;4.03;;
64457;SDS011;58438;51.200;7.252;2022-12-18T05:53:15;3.83;;;3.38;;
64457;SDS011;58438;51.200;7.252;2022-12-18T05:56:03;4.93;;;3.22;;
64457;SDS011;58438;51.200;7.252;2022-12-18T05:58:51;5.18;;;3.80;;
64457;SDS011;58438;51.200;7.252;2022-12-18T06:01:38;4.90;;;4.05;;
64457;SDS011;58438;51.200;7.252;2022-12-18T06:04:26;5.10;;;3.72;;
64457;SDS011;58438;51.200;7.252;2022-12-18T06:07:15;4.30;;;3.53;;
64457;SDS011;58438;51.200;7.252;2022-12-18T06:10:02;3.95;;;2.95;;
64457;SDS011;58438;51.200;7.252;2022-12-18T06:12:50;5.65;;;3.83;;
64457;SDS011;58438;51.200;7.252;2022-12-18T06:15:36;7.28;;;3.83;;
64457;SDS011;58438;51.200;7.252;2022-12-18T06:18:23;7.07;;;5.20;;
64457;SDS011;58438;51.200;7.252;2022-12-18T06:21:10;9.52;;;4.47;;
64457;SDS011;58438;51.200;7.252;2022-12-18T06:23:59;6.13;;;4.47;;
64457;SDS011;58438;51.200;7.252;2022-12-18T06:26:46;3.90;;;3.50;;
64457;SDS011;58438;51.200;7.252;2022-12-18T06:29:33;5.60;;;4.03;;
64457;SDS011;58438;51.200;7.252;2022-12-18T06:32:20;4.63;;;4.13;;
64457;SDS011;58438;51.200;7.252;2022-12-18T06:35:07;9.13;;;4.50;;
64457;SDS011;58438;51.200;7.252;2022-12-18T06:37:54;5.18;;;4.03;;
64457;SDS011;58438;51.200;7.252;2022-12-18T06:40:43;9.20;;;5.22;;
64457;SDS011;58438;51.200;7.252;2022-12-18T06:43:30;4.90;;;4.38;;
64457;SDS011;58438;51.200;7.252;2022-12-18T06:46:17;8.73;;;4.85;;
64457;SDS011;58438;51.200;7.252;2022-12-18T06:49:05;4.10;;;3.13;;
64457;SDS011;58438;51.200;7.252;2022-12-18T06:51:52;7.55;;;5.68;;
64457;SDS011;58438;51.200;7.252;2022-12-18T06:54:39;4.90;;;3.83;;
64457;SDS011;58438;51.200;7.252;2022-12-18T06:57:27;8.18;;;5.47;;
64457;SDS011;58438;51.200;7.252;2022-12-18T07:00:15;8.75;;;5.78;;
64457;SDS011;58438;51.200;7.252;2022-12-18T07:03:02;6.22;;;4.78;;
64457;SDS011;58438;51.200;7.252;2022-12-18T07:05:49;6.10;;;4.13;;
64457;SDS011;58438;51.200;7.252;2022-12-18T07:08:36;5.95;;;4.43;;
64457;SDS011;58438;51.200;7.252;2022-12-18T07:11:23;7.63;;;3.60;;
64457;SDS011;58438;51.200;7.252;2022-12-18T07:14:11;6.32;;;5.10;;
64457;SDS011;58438;51.200;7.252;2022-12-18T07:16:59;9.18;;;4.88;;
64457;SDS011;58438;51.200;7.252;2022-12-18T07:19:46;7.82;;;4.78;;
64457;SDS011;58438;51.200;7.252;2022-12-18T07:22:33;8.38;;;4.93;;
64457;SDS011;58438;51.200;7.252;2022-12-18T07:25:20;8.07;;;4.80;;
64457;SDS011;58438;51.200;7.252;2022-12-18T07:28:07;9.23;;;4.68;;
64457;SDS011;58438;51.200;7.252;2022-12-18T07:31:03;4.25;;;3.85;;
64457;SDS011;58438;51.200;7.252;2022-12-18T07:33:51;6.68;;;3.70;;
64457;SDS011;58438;51.200;7.252;2022-12-18T07:36:38;7.57;;;4.25;;
64457;SDS011;58438;51.200;7.252;2022-12-18T07:39:25;6.72;;;4.15;;
64457;SDS011;58438;51.200;7.252;2022-12-18T07:42:12;11.25;;;5.80;;
64457;SDS011;58438;51.200;7.252;2022-12-18T07:45:18;5.47;;;4.45;;
64457;SDS011;58438;51.200;7.252;2022-12-18T07:48:06;8.07;;;5.18;;
64457;SDS011;58438;51.200;7.252;2022-12-18T07:50:53;6.10;;;4.47;;
64457;SDS011;58438;51.200;7.252;2022-12-18T07:53:40;7.82;;;4.55;;
64457;SDS011;58438;51.200;7.252;2022-12-18T07:56:28;8.48;;;4.55;;
64457;SDS011;58438;51.200;7.252;2022-12-18T07:59:16;11.18;;;5.10;;
64457;SDS011;58438;51.200;7.252;2022-12-18T08:02:03;6.25;;;4.40;;
64457;SDS011;58438;51.200;7.252;2022-12-18T08:04:52;7.28;;;5.25;;
64457;SDS011;58438;51.200;7.252;2022-12-18T08:07:39;6.60;;;3.63;;
64457;SDS011;58438;51.200;7.252;2022-12-18T08:10:29;9.13;;;4.28;;
64457;SDS011;58438;51.200;7.252;2022-12-18T08:13:16;8.35;;;3.60;;
64457;SDS011;58438;51.200;7.252;2022-12-18T08:16:03;7.95;;;4.30;;
64457;SDS011;58438;51.200;7.252;2022-12-18T08:18:51;5.07;;;3.80;;
64457;SDS011;58438;51.200;7.252;2022-12-18T08:21:43;6.50;;;4.30;;
64457;SDS011;58438;51.200;7.252;2022-12-18T08:24:30;7.60;;;4.65;;
64457;SDS011;58438;51.200;7.252;2022-12-18T08:27:17;8.18;;;4.75;;
64457;SDS011;58438;51.200;7.252;2022-12-18T08:30:19;3.92;;;3.40;;
64457;SDS011;58438;51.200;7.252;2022-12-18T08:33:07;8.88;;;4.88;;
64457;SDS011;58438;51.200;7.252;2022-12-18T08:35:54;6.35;;;4.53;;
64457;SDS011;58438;51.200;7.252;2022-12-18T08:38:42;9.68;;;5.28;;
64457;SDS011;58438;51.200;7.252;2022-12-18T08:41:29;7.00;;;4.32;;
64457;SDS011;58438;51.200;7.252;2022-12-18T08:44:17;7.07;;;4.18;;
64457;SDS011;58438;51.200;7.252;2022-12-18T08:50:08;6.07;;;3.72;;
64457;SDS011;58438;51.200;7.252;2022-12-18T08:52:57;5.30;;;2.92;;
64457;SDS011;58438;51.200;7.252;2022-12-18T08:55:45;7.50;;;3.95;;
64457;SDS011;58438;51.200;7.252;2022-12-18T08:58:35;4.97;;;3.35;;
64457;SDS011;58438;51.200;7.252;2022-12-18T09:01:22;7.30;;;3.65;;
64457;SDS011;58438;51.200;7.252;2022-12-18T09:04:09;8.02;;;5.60;;
64457;SDS011;58438;51.200;7.252;2022-12-18T09:06:57;3.85;;;3.40;;
64457;SDS011;58438;51.200;7.252;2022-12-18T09:09:43;7.22;;;4.15;;
64457;SDS011;58438;51.200;7.252;2022-12-18T09:12:32;10.02;;;4.45;;
64457;SDS011;58438;51.200;7.252;2022-12-18T09:15:19;9.35;;;5.18;;
64457;SDS011;58438;51.200;7.252;2022-12-18T09:18:06;6.60;;;4.25;;
64457;SDS011;58438;51.200;7.252;2022-12-18T09:20:54;3.25;;;2.75;;
64457;SDS011;58438;51.200;7.252;2022-12-18T09:23:41;7.45;;;3.53;;
64457;SDS011;58438;51.200;7.252;2022-12-18T09:26:30;3.03;;;2.80;;
64457;SDS011;58438;51.200;7.252;2022-12-18T09:29:18;5.65;;;3.30;;
64457;SDS011;58438;51.200;7.252;2022-12-18T09:32:06;3.22;;;2.88;;
64457;SDS011;58438;51.200;7.252;2022-12-18T09:34:53;6.20;;;3.92;;
64457;SDS011;58438;51.200;7.252;2022-12-18T09:37:40;8.82;;;4.13;;
64457;SDS011;58438;51.200;7.252;2022-12-18T09:40:29;7.63;;;3.78;;
64457;SDS011;58438;51.200;7.252;2022-12-18T09:43:22;5.95;;;3.80;;
64457;SDS011;58438;51.200;7.252;2022-12-18T09:46:16;3.47;;;2.22;;
64457;SDS011;58438;51.200;7.252;2022-12-18T09:49:05;4.60;;;3.08;;
64457;SDS011;58438;51.200;7.252;2022-12-18T09:51:54;4.88;;;3.03;;
64457;SDS011;58438;51.200;7.252;2022-12-18T09:54:44;3.95;;;3.40;;
64457;SDS011;58438;51.200;7.252;2022-12-18T09:57:32;8.48;;;3.70;;
64457;SDS011;58438;51.200;7.252;2022-12-18T10:00:20;6.95;;;3.60;;
64457;SDS011;58438;51.200;7.252;2022-12-18T10:03:10;5.15;;;3.38;;
64457;SDS011;58438;51.200;7.252;2022-12-18T10:06:00;4.80;;;3.08;;
64457;SDS011;58438;51.200;7.252;2022-12-18T10:08:49;6.43;;;4.55;;
64457;SDS011;58438;51.200;7.252;2022-12-18T10:11:40;5.00;;;2.92;;
64457;SDS011;58438;51.200;7.252;2022-12-18T10:14:30;8.35;;;4.15;;
64457;SDS011;58438;51.200;7.252;2022-12-18T10:17:22;5.45;;;3.45;;
64457;SDS011;58438;51.200;7.252;2022-12-18T10:20:16;5.70;;;3.35;;
64457;SDS011;58438;51.200;7.252;2022-12-18T10:23:08;6.30;;;2.70;;
64457;SDS011;58438;51.200;7.252;2022-12-18T10:26:00;6.53;;;3.17;;
64457;SDS011;58438;51.200;7.252;2022-12-18T10:28:48;6.65;;;3.53;;
64457;SDS011;58438;51.200;7.252;2022-12-18T10:31:37;7.82;;;4.10;;
64457;SDS011;58438;51.200;7.252;2022-12-18T10:34:24;9.20;;;4.15;;
64457;SDS011;58438;51.200;7.252;2022-12-18T10:37:14;4.78;;;3.50;;
64457;SDS011;58438;51.200;7.252;2022-12-18T10:40:06;7.60;;;4.85;;
64457;SDS011;58438;51.200;7.252;2022-12-18T10:43:02;7.80;;;4.35;;
64457;SDS011;58438;51.200;7.252;2022-12-18T10:46:01;6.63;;;5.00;;
64457;SDS011;58438;51.200;7.252;2022-12-18T10:48:52;9.45;;;4.15;;
64457;SDS011;58438;51.200;7.252;2022-12-18T10:51:39;10.35;;;4.55;;
64457;SDS011;58438;51.200;7.252;2022-12-18T10:54:28;6.75;;;3.95;;
64457;SDS011;58438;51.200;7.252;2022-12-18T10:57:17;5.78;;;3.78;;
64457;SDS011;58438;51.200;7.252;2022-12-18T11:00:24;7.88;;;4.78;;
64457;SDS011;58438;51.200;7.252;2022-12-18T11:03:29;7.60;;;3.65;;
64457;SDS011;58438;51.200;7.252;2022-12-18T11:09:04;9.55;;;5.55;;
64457;SDS011;58438;51.200;7.252;2022-12-18T11:12:01;10.20;;;4.93;;
64457;SDS011;58438;51.200;7.252;2022-12-18T11:14:49;10.60;;;4.95;;
64457;SDS011;58438;51.200;7.252;2022-12-18T11:17:37;14.60;;;5.45;;
64457;SDS011;58438;51.200;7.252;2022-12-18T11:20:27;11.55;;;6.03;;
64457;SDS011;58438;51.200;7.252;2022-12-18T11:23:15;10.10;;;4.15;;
64457;SDS011;58438;51.200;7.252;2022-12-18T11:26:03;8.38;;;5.05;;
64457;SDS011;58438;51.200;7.252;2022-12-18T11:29:07;11.48;;;5.25;;
64457;SDS011;58438;51.200;7.252;2022-12-18T11:32:03;9.55;;;5.18;;
64457;SDS011;58438;51.200;7.252;2022-12-18T11:35:01;5.90;;;4.15;;
64457;SDS011;58438;51.200;7.252;2022-12-18T11:37:51;13.60;;;6.30;;
64457;SDS011;58438;51.200;7.252;2022-12-18T11:40:44;18.90;;;7.35;;
64457;SDS011;58438;51.200;7.252;2022-12-18T11:43:35;12.15;;;5.63;;
64457;SDS011;58438;51.200;7.252;2022-12-18T11:46:27;16.90;;;6.20;;
64457;SDS011;58438;51.200;7.252;2022-12-18T11:49:19;20.15;;;7.07;;
64457;SDS011;58438;51.200;7.252;2022-12-18T11:52:09;15.15;;;6.95;;
64457;SDS011;58438;51.200;7.252;2022-12-18T11:54:59;12.73;;;6.85;;
64457;SDS011;58438;51.200;7.252;2022-12-18T11:57:49;10.45;;;5.97;;
64457;SDS011;58438;51.200;7.252;2022-12-18T12:00:41;17.60;;;7.82;;
64457;SDS011;58438;51.200;7.252;2022-12-18T12:03:42;17.17;;;6.72;;
64457;SDS011;58438;51.200;7.252;2022-12-18T12:06:35;14.65;;;6.50;;
64457;SDS011;58438;51.200;7.252;2022-12-18T12:09:27;15.15;;;6.47;;
64457;SDS011;58438;51.200;7.252;2022-12-18T12:12:23;15.82;;;5.88;;
64457;SDS011;58438;51.200;7.252;2022-12-18T12:15:34;12.02;;;6.18;;
64457;SDS011;58438;51.200;7.252;2022-12-18T12:18:34;13.43;;;6.43;;
64457;SDS011;58438;51.200;7.252;2022-12-18T12:21:37;12.27;;;5.57;;
64457;SDS011;58438;51.200;7.252;2022-12-18T12:24:30;15.80;;;7.43;;
64457;SDS011;58438;51.200;7.252;2022-12-18T12:27:26;18.58;;;7.38;;
64457;SDS011;58438;51.200;7.252;2022-12-18T12:30:24;16.33;;;5.90;;
64457;SDS011;58438;51.200;7.252;2022-12-18T12:33:21;12.45;;;6.28;;
64457;SDS011;58438;51.200;7.252;2022-12-18T12:36:13;17.05;;;7.38;;
64457;SDS011;58438;51.200;7.252;2022-12-18T12:39:08;14.65;;;7.68;;
64457;SDS011;58438;51.200;7.252;2022-12-18T12:42:01;11.70;;;7.05;;
64457;SDS011;58438;51.200;7.252;2022-12-18T12:45:09;10.73;;;6.25;;
64457;SDS011;58438;51.200;7.252;2022-12-18T12:48:04;13.85;;;7.57;;
64457;SDS011;58438;51.200;7.252;2022-12-18T12:51:03;20.30;;;9.38;;
64457;SDS011;58438;51.200;7.252;2022-12-18T12:53:58;9.52;;;6.13;;
64457;SDS011;58438;51.200;7.252;2022-12-18T12:56:50;13.80;;;7.28;;
64457;SDS011;58438;51.200;7.252;2022-12-18T12:59:46;20.05;;;8.52;;
64457;SDS011;58438;51.200;7.252;2022-12-18T13:02:36;15.55;;;6.15;;
64457;SDS011;58438;51.200;7.252;2022-12-18T13:05:28;11.68;;;6.60;;
64457;SDS011;58438;51.200;7.252;2022-12-18T13:08:23;16.05;;;9.18;;
64457;SDS011;58438;51.200;7.252;2022-12-18T13:11:15;17.85;;;9.23;;
64457;SDS011;58438;51.200;7.252;2022-12-18T13:14:41;8.82;;;6.53;;
64457;SDS011;58438;51.200;7.252;2022-12-18T13:17:29;23.83;;;9.82;;
64457;SDS011;58438;51.200;7.252;2022-12-18T13:20:18;21.90;;;9.70;;
64457;SDS011;58438;51.200;7.252;2022-12-18T13:23:19;25.60;;;10.05;;
64457;SDS011;58438;51.200;7.252;2022-12-18T13:26:32;7.97;;;5.90;;
64457;SDS011;58438;51.200;7.252;2022-12-18T13:32:29;17.27;;;8.27;;
64457;SDS011;58438;51.200;7.252;2022-12-18T13:38:32;24.48;;;9.52;;
64457;SDS011;58438;51.200;7.252;2022-12-18T13:41:22;24.00;;;9.30;;
64457;SDS011;58438;51.200;7.252;2022-12-18T13:44:13;19.45;;;9.13;;
64457;SDS011;58438;51.200;7.252;2022-12-18T13:47:25;21.15;;;9.13;;
64457;SDS011;58438;51.200;7.252;2022-12-18T13:50:20;27.98;;;11.18;;
64457;SDS011;58438;51.200;7.252;2022-12-18T13:53:21;21.73;;;10.05;;
64457;SDS011;58438;51.200;7.252;2022-12-18T13:56:15;8.90;;;6.78;;
64457;SDS011;58438;51.200;7.252;2022-12-18T13:59:15;30.63;;;12.23;;
64457;SDS011;58438;51.200;7.252;2022-12-18T14:02:13;22.55;;;10.60;;
64457;SDS011;58438;51.200;7.252;2022-12-18T14:05:02;20.50;;;11.95;;
64457;SDS011;58438;51.200;7.252;2022-12-18T14:07:52;26.73;;;11.55;;
64457;SDS011;58438;51.200;7.252;2022-12-18T14:10:41;19.83;;;9.43;;
64457;SDS011;58438;51.200;7.252;2022-12-18T14:13:35;23.00;;;11.30;;
64457;SDS011;58438;51.200;7.252;2022-12-18T14:16:24;18.90;;;10.48;;
64457;SDS011;58438;51.200;7.252;2022-12-18T14:19:13;29.20;;;11.82;;
64457;SDS011;58438;51.200;7.252;2022-12-18T14:22:02;20.17;;;10.35;;
64457;SDS011;58438;51.200;7.252;2022-12-18T14:25:04;20.95;;;9.80;;
64457;SDS011;58438;51.200;7.252;2022-12-18T14:28:02;23.75;;;10.30;;
64457;SDS011;58438;51.200;7.252;2022-12-18T14:30:59;22.42;;;9.13;;
64457;SDS011;58438;51.200;7.252;2022-12-18T14:33:47;18.15;;;9.63;;
64457;SDS011;58438;51.200;7.252;2022-12-18T14:36:35;16.48;;;8.10;;
64457;SDS011;58438;51.200;7.252;2022-12-18T14:39:25;18.88;;;9.23;;
64457;SDS011;58438;51.200;7.252;2022-12-18T14:42:12;17.63;;;8.13;;
64457;SDS011;58438;51.200;7.252;2022-12-18T14:45:31;26.75;;;11.25;;
64457;SDS011;58438;51.200;7.252;2022-12-18T14:48:34;19.88;;;10.98;;
64457;SDS011;58438;51.200;7.252;2022-12-18T14:51:24;23.20;;;9.85;;
64457;SDS011;58438;51.200;7.252;2022-12-18T14:54:15;20.92;;;9.95;;
64457;SDS011;58438;51.200;7.252;2022-12-18T14:57:03;25.77;;;10.75;;
64457;SDS011;58438;51.200;7.252;2022-12-18T14:59:51;24.42;;;9.68;;
64457;SDS011;58438;51.200;7.252;2022-12-18T15:02:39;22.15;;;11.23;;
64457;SDS011;58438;51.200;7.252;2022-12-18T15:05:28;22.50;;;11.35;;
64457;SDS011;58438;51.200;7.252;2022-12-18T15:08:30;17.30;;;9.80;;
64457;SDS011;58438;51.200;7.252;2022-12-18T15:11:25;18.83;;;9.93;;
64457;SDS011;58438;51.200;7.252;2022-12-18T15:14:22;17.00;;;8.82;;
64457;SDS011;58438;51.200;7.252;2022-12-18T15:17:14;18.48;;;9.73;;
64457;SDS011;58438;51.200;7.252;2022-12-18T15:20:03;22.90;;;11.98;;
64457;SDS011;58438;51.200;7.252;2022-12-18T15:22:56;19.98;;;9.57;;
64457;SDS011;58438;51.200;7.252;2022-12-18T15:25:44;16.48;;;8.93;;
64457;SDS011;58438;51.200;7.252;2022-12-18T15:28:33;23.80;;;10.95;;
64457;SDS011;58438;51.200;7.252;2022-12-18T15:31:24;19.73;;;9.75;;
64457;SDS011;58438;51.200;7.252;2022-12-18T15:34:12;19.13;;;9.70;;
64457;SDS011;58438;51.200;7.252;2022-12-18T15:37:00;22.73;;;10.35;;
64457;SDS011;58438;51.200;7.252;2022-12-18T15:39:47;19.00;;;9.30;;
64457;SDS011;58438;51.200;7.252;2022-12-18T15:42:35;28.02;;;10.85;;
64457;SDS011;58438;51.200;7.252;2022-12-18T15:45:39;21.42;;;11.48;;
64457;SDS011;58438;51.200;7.252;2022-12-18T15:48:26;23.42;;;12.30;;
64457;SDS011;58438;51.200;7.252;2022-12-18T15:51:14;26.50;;;12.60;;
64457;SDS011;58438;51.200;7.252;2022-12-18T15:54:03;28.02;;;12.45;;
64457;SDS011;58438;51.200;7.252;2022-12-18T15:56:50;29.75;;;12.38;;
64457;SDS011;58438;51.200;7.252;2022-12-18T15:59:53;25.05;;;9.95;;
64457;SDS011;58438;51.200;7.252;2022-12-18T16:02:42;20.27;;;8.45;;
64457;SDS011;58438;51.200;7.252;2022-12-18T16:05:30;24.98;;;11.02;;
64457;SDS011;58438;51.200;7.252;2022-12-18T16:08:17;19.23;;;8.80;;
64457;SDS011;58438;51.200;7.252;2022-12-18T16:11:05;24.23;;;13.07;;
64457;SDS011;58438;51.200;7.252;2022-12-18T16:13:55;18.45;;;9.93;;
64457;SDS011;58438;51.200;7.252;2022-12-18T16:16:45;17.10;;;11.30;;
64457;SDS011;58438;51.200;7.252;2022-12-18T16:19:34;10.38;;;7.00;;
64457;SDS011;58438;51.200;7.252;2022-12-18T16:22:22;29.80;;;8.52;;
64457;SDS011;58438;51.200;7.252;2022-12-18T16:25:15;21.77;;;9.77;;
64457;SDS011;58438;51.200;7.252;2022-12-18T16:28:02;27.88;;;15.38;;
64457;SDS011;58438;51.200;7.252;2022-12-18T16:30:50;30.55;;;15.25;;
64457;SDS011;58438;51.200;7.252;2022-12-18T16:33:39;17.45;;;11.30;;
64457;SDS011;58438;51.200;7.252;2022-12-18T16:36:26;24.05;;;12.63;;
64457;SDS011;58438;51.200;7.252;2022-12-18T16:39:13;22.63;;;10.23;;
64457;SDS011;58438;51.200;7.252;2022-12-18T16:42:01;22.08;;;13.45;;
64457;SDS011;58438;51.200;7.252;2022-12-18T16:44:50;26.63;;;15.45;;
64457;SDS011;58438;51.200;7.252;2022-12-18T16:47:37;21.08;;;10.73;;
64457;SDS011;58438;51.200;7.252;2022-12-18T16:50:26;25.27;;;11.88;;
64457;SDS011;58438;51.200;7.252;2022-12-18T16:53:13;22.80;;;11.52;;
64457;SDS011;58438;51.200;7.252;2022-12-18T16:55:59;31.73;;;15.38;;
64457;SDS011;58438;51.200;7.252;2022-12-18T16:58:49;10.77;;;9.32;;
64457;SDS011;58438;51.200;7.252;2022-12-18T17:01:36;27.75;;;13.65;;
64457;SDS011;58438;51.200;7.252;2022-12-18T17:04:23;26.33;;;13.10;;
64457;SDS011;58438;51.200;7.252;2022-12-18T17:07:12;22.50;;;11.00;;
64457;SDS011;58438;51.200;7.252;2022-12-18T17:09:59;23.88;;;11.70;;